createdAt,value
2022-11-12T00:04:46.149Z,87.52
2022-11-12T00:10:26.042Z,87.68
2022-11-12T00:16:05.874Z,87.73
2022-11-12T00:21:44.909Z,87.62
2022-11-12T00:27:24.421Z,87.66
2022-11-12T00:33:05.103Z,87.58
2022-11-12T00:38:44.255Z,87.32
2022-11-12T00:44:23.456Z,87.38
2022-11-12T00:50:02.927Z,87.20
2022-11-12T00:55:42.000Z,87.37
2022-11-12T01:01:21.760Z,87.65
2022-11-12T01:07:00.944Z,87.59
2022-11-12T01:12:40.643Z,87.49
2022-11-12T01:18:19.566Z,87.45
2022-11-12T01:24:00.888Z,87.33
2022-11-12T01:29:40.951Z,87.54
2022-11-12T01:35:20.308Z,87.35
2022-11-12T01:40:59.567Z,87.40
2022-11-12T01:46:49.923Z,87.23
2022-11-12T01:52:35.201Z,87.20
2022-11-12T01:58:18.367Z,87.56
2022-11-12T02:03:57.396Z,87.52
2022-11-12T02:09:36.868Z,87.69
2022-11-12T02:15:16.069Z,87.45
2022-11-12T02:20:58.039Z,87.66
2022-11-12T02:26:40.918Z,87.59
2022-11-12T02:32:20.197Z,87.40
2022-11-12T02:38:00.049Z,87.41
2022-11-12T02:43:40.728Z,87.60
2022-11-12T02:49:19.848Z,87.60
2022-11-12T02:54:59.189Z,87.66
2022-11-12T03:00:38.226Z,87.51
2022-11-12T03:06:17.835Z,87.78
2022-11-12T03:11:57.275Z,87.66
2022-11-12T03:17:36.340Z,87.79
2022-11-12T03:23:15.514Z,87.80
2022-11-12T03:28:55.045Z,87.64
2022-11-12T03:34:34.339Z,87.73
2022-11-12T03:40:13.458Z,87.54
2022-11-12T03:45:52.506Z,87.52
2022-11-12T03:51:31.769Z,87.61
2022-11-12T03:57:10.705Z,87.63
2022-11-12T04:02:50.119Z,88.01
2022-11-12T04:08:38.427Z,88.03
2022-11-12T04:14:17.737Z,88.19
2022-11-12T04:20:15.601Z,88.40
2022-11-12T04:26:13.613Z,88.36
2022-11-12T04:31:52.881Z,88.44
2022-11-12T04:37:44.451Z,88.29
2022-11-12T04:43:42.296Z,88.42
2022-11-12T04:49:21.698Z,88.55
2022-11-12T04:55:01.404Z,88.48
2022-11-12T05:00:40.715Z,88.95
2022-11-12T05:06:38.343Z,88.58
2022-11-12T05:12:17.862Z,88.34
2022-11-12T05:17:57.139Z,88.01
2022-11-12T05:23:35.976Z,88.03
2022-11-12T05:29:15.208Z,88.31
2022-11-12T05:34:54.569Z,88.17
2022-11-12T05:40:33.761Z,88.39
2022-11-12T05:46:13.116Z,88.73
2022-11-12T05:51:52.701Z,88.33
2022-11-12T05:57:32.073Z,88.37
2022-11-12T06:03:12.358Z,88.65
2022-11-12T06:08:51.754Z,88.38
2022-11-12T06:14:31.158Z,88.70
2022-11-12T06:20:11.216Z,88.65
2022-11-12T06:25:50.514Z,88.39
2022-11-12T06:31:29.752Z,88.80
2022-11-12T06:37:09.170Z,88.80
2022-11-12T06:42:48.393Z,88.75
2022-11-12T06:48:28.765Z,89.16
2022-11-12T06:54:08.311Z,88.86
2022-11-12T06:59:47.418Z,88.70
2022-11-12T07:05:26.512Z,88.98
2022-11-12T07:11:06.367Z,89.03
2022-11-12T07:16:45.754Z,89.26
2022-11-12T07:22:24.949Z,89.00
2022-11-12T07:28:04.701Z,88.99
2022-11-12T07:33:44.424Z,88.76
2022-11-12T07:39:23.896Z,89.20
2022-11-12T07:45:03.307Z,89.27
2022-11-12T07:50:42.571Z,89.35
2022-11-12T07:56:24.728Z,89.28
2022-11-12T08:02:04.156Z,89.03
2022-11-12T08:07:43.175Z,88.79
2022-11-12T08:13:22.228Z,88.53
2022-11-12T08:19:01.510Z,87.97
2022-11-12T08:24:40.649Z,87.78
2022-11-12T08:30:19.518Z,87.53
2022-11-12T08:36:02.057Z,87.44
2022-11-12T08:41:41.077Z,87.46
2022-11-12T08:47:20.046Z,87.68
2022-11-12T08:53:04.438Z,87.66
2022-11-12T08:58:43.745Z,87.61
2022-11-12T09:04:23.157Z,87.37
2022-11-12T09:10:02.755Z,87.38
2022-11-12T09:15:43.130Z,87.21
2022-11-12T09:21:24.673Z,86.84
2022-11-12T09:27:03.909Z,86.68
2022-11-12T09:32:43.424Z,86.18
2022-11-12T09:38:22.912Z,86.63
2022-11-12T09:44:04.930Z,86.51
2022-11-12T09:50:03.548Z,86.33
2022-11-12T09:55:46.648Z,87.18
2022-11-12T10:01:50.103Z,87.33
2022-11-12T10:07:38.323Z,87.23
2022-11-12T10:13:34.913Z,87.21
2022-11-12T10:19:37.085Z,87.41
2022-11-12T10:25:19.438Z,87.63
2022-11-12T10:31:06.122Z,87.86
2022-11-12T10:36:56.692Z,87.87
2022-11-12T10:42:59.312Z,87.68
2022-11-12T10:48:38.448Z,87.61
2022-11-12T10:54:30.078Z,87.74
2022-11-12T11:00:12.215Z,87.79
2022-11-12T11:06:00.417Z,88.04
2022-11-12T11:12:00.446Z,87.41
2022-11-12T11:17:39.757Z,87.37
2022-11-12T11:23:28.923Z,87.43
2022-11-12T11:29:30.641Z,87.23
2022-11-12T11:35:34.932Z,87.49
2022-11-12T11:41:30.847Z,87.43
2022-11-12T11:47:19.133Z,87.27
2022-11-12T11:53:26.710Z,87.44
2022-11-12T11:59:30.694Z,87.18
2022-11-12T12:05:27.755Z,87.44
2022-11-12T12:11:32.453Z,86.96
2022-11-12T12:17:31.848Z,86.82
2022-11-12T12:23:37.505Z,86.81
2022-11-12T12:29:34.575Z,87.07
2022-11-12T12:35:33.001Z,87.48
2022-11-12T12:41:30.670Z,87.58
2022-11-12T12:47:13.040Z,87.87
2022-11-12T12:53:16.546Z,87.88
2022-11-12T12:58:55.751Z,87.99
2022-11-12T13:04:55.192Z,88.29
2022-11-12T13:10:44.445Z,88.04
2022-11-12T13:16:52.135Z,87.93
2022-11-12T13:22:40.248Z,87.99
2022-11-12T13:28:19.745Z,88.29
2022-11-12T13:34:13.214Z,88.32
2022-11-12T13:39:52.468Z,88.30
2022-11-12T13:45:35.531Z,88.39
2022-11-12T13:51:27.275Z,88.08
2022-11-12T13:57:24.018Z,88.54
2022-11-12T14:03:06.301Z,88.17
2022-11-12T14:09:25.863Z,88.78
2022-11-12T14:15:23.663Z,88.96
2022-11-12T14:21:11.054Z,88.86
2022-11-12T14:26:50.801Z,89.24
2022-11-12T14:32:37.139Z,89.46
2022-11-12T14:38:48.613Z,89.19
2022-11-12T14:44:34.580Z,89.43
2022-11-12T14:50:20.847Z,89.12
2022-11-12T14:56:03.590Z,89.10
2022-11-12T15:08:08.088Z,89.42
2022-11-12T15:13:49.406Z,89.75
2022-11-12T15:19:29.644Z,89.94
2022-11-12T15:25:18.096Z,89.61
2022-11-12T15:31:06.040Z,89.86
2022-11-12T15:36:45.289Z,89.85
2022-11-12T15:42:33.820Z,89.56
2022-11-12T15:48:13.067Z,89.66
2022-11-12T15:53:52.744Z,89.70
2022-11-12T15:59:32.099Z,89.65
2022-11-12T16:05:18.533Z,89.79
2022-11-12T16:10:57.828Z,89.66
2022-11-12T16:16:39.594Z,89.53
2022-11-12T16:22:18.935Z,89.71
2022-11-12T16:28:00.892Z,89.58
2022-11-12T16:33:39.944Z,89.59
2022-11-12T16:39:18.892Z,89.72
2022-11-12T16:44:58.408Z,89.69
2022-11-12T16:50:37.815Z,89.54
2022-11-12T16:56:21.936Z,89.41
2022-11-12T17:02:01.150Z,89.26
2022-11-12T17:07:40.353Z,89.31
2022-11-12T17:13:19.617Z,89.38
2022-11-12T17:19:01.576Z,89.17
2022-11-12T17:24:40.682Z,89.56
2022-11-12T17:30:21.162Z,89.61
2022-11-12T17:36:05.009Z,89.66
2022-11-12T17:41:44.485Z,89.94
2022-11-12T17:47:23.928Z,89.86
2022-11-12T17:53:03.418Z,89.99
2022-11-12T17:58:45.303Z,89.91
2022-11-12T18:04:26.552Z,89.88
2022-11-12T18:10:08.083Z,89.83
2022-11-12T18:15:47.689Z,89.82
2022-11-12T18:21:27.561Z,89.93
2022-11-12T18:27:07.005Z,89.68
2022-11-12T18:32:46.586Z,89.75
2022-11-12T18:38:25.893Z,89.76
2022-11-12T18:44:05.257Z,89.95
2022-11-12T18:49:44.732Z,90.17
2022-11-12T18:55:24.069Z,90.48
2022-11-12T19:01:10.820Z,90.46
2022-11-12T19:06:51.881Z,90.80
2022-11-12T19:12:31.241Z,90.61
2022-11-12T19:18:10.701Z,90.30
2022-11-12T19:23:53.996Z,90.16
2022-11-12T19:29:33.855Z,89.91
2022-11-12T19:35:13.272Z,89.85
2022-11-12T19:40:52.465Z,89.65
2022-11-12T19:46:32.448Z,89.94
2022-11-12T19:52:12.126Z,89.85
2022-11-12T19:57:52.010Z,89.84
2022-11-12T20:03:31.250Z,89.96
2022-11-12T20:09:10.352Z,89.93
2022-11-12T20:14:49.673Z,89.93
2022-11-12T20:20:29.016Z,89.96
2022-11-12T20:26:12.167Z,89.98
2022-11-12T20:31:51.361Z,90.17
2022-11-12T20:37:30.691Z,90.13
2022-11-12T20:43:09.928Z,89.86
2022-11-12T20:48:49.313Z,90.14
2022-11-12T20:54:28.684Z,90.10
2022-11-12T21:00:13.522Z,90.33
2022-11-12T21:06:01.768Z,90.28
2022-11-12T21:11:41.090Z,90.23
2022-11-12T21:17:20.601Z,90.31
2022-11-12T21:22:59.711Z,90.30
2022-11-12T21:28:41.556Z,90.38
2022-11-12T21:34:20.703Z,90.38
2022-11-12T21:39:59.792Z,90.44
2022-11-12T21:45:44.839Z,90.24
2022-11-12T21:51:26.879Z,90.15
2022-11-12T21:57:06.571Z,90.02
2022-11-12T22:02:45.822Z,89.95
2022-11-12T22:08:25.608Z,90.05
2022-11-12T22:14:05.022Z,90.05
2022-11-12T22:19:44.053Z,89.93
2022-11-12T22:25:23.277Z,89.85
2022-11-12T22:31:05.157Z,89.92
2022-11-12T22:36:44.807Z,89.87
2022-11-12T22:42:23.851Z,89.82
2022-11-12T22:48:03.684Z,89.92
2022-11-12T22:53:43.450Z,89.83
2022-11-12T22:59:23.179Z,89.99
2022-11-12T23:05:03.435Z,89.94
2022-11-12T23:10:45.790Z,89.94
2022-11-12T23:16:30.010Z,89.91
2022-11-12T23:22:09.296Z,89.96
2022-11-12T23:27:48.374Z,90.02
2022-11-12T23:33:27.515Z,90.43
2022-11-12T23:39:06.844Z,90.98
2022-11-12T23:44:46.457Z,90.62
2022-11-12T23:50:25.761Z,90.34
2022-11-12T23:56:06.957Z,90.18
